createdAt,value
2022-08-08T00:00:56.445Z,99217.09
2022-08-08T00:03:34.076Z,99218.41
2022-08-08T00:06:09.658Z,99213.31
2022-08-08T00:08:48.880Z,99220.25
2022-08-08T00:12:02.803Z,99215.97
2022-08-08T00:14:48.503Z,99213.31
2022-08-08T00:18:03.293Z,99219.72
2022-08-08T00:20:33.429Z,99210.66
2022-08-08T00:23:06.225Z,99210.66
2022-08-08T00:25:44.926Z,99212.50
2022-08-08T00:28:35.211Z,99211.44
2022-08-08T00:32:20.713Z,99219.47
2022-08-08T00:34:18.118Z,99214.38
2022-08-08T00:36:51.637Z,99214.38
2022-08-08T00:41:07.076Z,99214.38
2022-08-08T00:42:30.261Z,99209.84
2022-08-08T00:45:27.066Z,99214.38
2022-08-08T00:48:02.142Z,99210.91
2022-08-08T00:50:36.041Z,99211.16
2022-08-08T00:53:24.323Z,99205.81
2022-08-08T00:56:11.204Z,99211.16
2022-08-08T00:58:54.516Z,99204.19
2022-08-08T01:01:39.367Z,99202.56
2022-08-08T01:04:29.877Z,99203.06
2022-08-08T01:07:34.482Z,99200.38
2022-08-08T01:10:52.426Z,99197.97
2022-08-08T01:13:53.115Z,99202.50
2022-08-08T01:16:37.356Z,99198.19
2022-08-08T01:19:52.344Z,99199.25
2022-08-08T01:22:44.723Z,99202.16
2022-08-08T01:25:40.158Z,99202.16
2022-08-08T01:28:34.764Z,99208.28
2022-08-08T01:32:13.741Z,99210.16
2022-08-08T01:34:54.696Z,99214.19
2022-08-08T01:37:56.916Z,99212.13
2022-08-08T01:40:37.628Z,99209.44
2022-08-08T01:43:10.158Z,99207.00
2022-08-08T01:46:00.390Z,99208.06
2022-08-08T01:48:48.283Z,99202.72
2022-08-08T01:52:43.812Z,99205.41
2022-08-08T01:56:08.767Z,99204.59
2022-08-08T01:57:21.569Z,99200.28
2022-08-08T02:00:24.931Z,99205.88
2022-08-08T02:03:54.426Z,99197.53
2022-08-08T02:06:59.445Z,99198.59
2022-08-08T02:10:04.205Z,99202.06
2022-08-08T02:13:53.243Z,99197.00
2022-08-08T02:16:35.608Z,99196.41
2022-08-08T02:19:56.882Z,99195.63
2022-08-08T02:22:31.856Z,99200.72
2022-08-08T02:25:28.223Z,99197.00
2022-08-08T02:28:11.196Z,99212.75
2022-08-08T02:31:53.995Z,99214.06
2022-08-08T02:35:07.660Z,99203.13
2022-08-08T02:37:52.278Z,99201.53
2022-08-08T02:40:38.135Z,99207.66
2022-08-08T02:44:38.061Z,99203.06
2022-08-08T02:47:17.050Z,99203.06
2022-08-08T02:50:22.207Z,99210.81
2022-08-08T02:53:21.561Z,99202.00
2022-08-08T02:56:08.794Z,99205.72
2022-08-08T02:59:17.189Z,99195.31
2022-08-08T03:02:44.016Z,99202.00
2022-08-08T03:05:47.293Z,99205.72
2022-08-08T03:08:34.043Z,99212.69
2022-08-08T03:11:47.778Z,99211.88
2022-08-08T03:15:56.571Z,99207.81
2022-08-08T03:17:41.289Z,99215.00
2022-08-08T03:20:10.518Z,99216.06
2022-08-08T03:22:48.199Z,99216.31
2022-08-08T03:25:33.859Z,99218.66
2022-08-08T03:28:19.038Z,99208.25
2022-08-08T03:30:48.940Z,99213.59
2022-08-08T03:33:55.190Z,99213.59
2022-08-08T03:36:05.324Z,99211.72
2022-08-08T03:38:58.464Z,99213.59
2022-08-08T03:42:12.052Z,99218.91
2022-08-08T03:44:17.798Z,99224.25
2022-08-08T03:46:47.468Z,99215.66
2022-08-08T03:49:58.847Z,99219.13
2022-08-08T03:52:05.300Z,99224.47
2022-08-08T03:54:51.612Z,99222.88
2022-08-08T03:58:30.720Z,99226.91
2022-08-08T04:00:18.181Z,99229.00
2022-08-08T04:02:57.011Z,99228.78
2022-08-08T04:05:36.284Z,99234.59
2022-08-08T04:08:06.820Z,99235.41
2022-08-08T04:10:34.445Z,99237.25
2022-08-08T04:13:08.201Z,99235.66
2022-08-08T04:16:03.872Z,99240.72
2022-08-08T04:18:31.596Z,99239.94
2022-08-08T04:20:58.751Z,99242.84
2022-08-08T04:23:25.283Z,99244.94
2022-08-08T04:26:04.086Z,99244.94
2022-08-08T04:28:40.565Z,99242.25
2022-08-08T04:31:09.405Z,99253.19
2022-08-08T04:33:42.057Z,99252.13
2022-08-08T04:36:08.762Z,99253.72
2022-08-08T04:38:35.277Z,99253.97
2022-08-08T04:41:02.030Z,99247.25
2022-08-08T04:43:32.342Z,99257.94
2022-08-08T04:46:14.531Z,99258.75
2022-08-08T04:48:41.422Z,99255.03
2022-08-08T04:51:09.071Z,99252.59
2022-08-08T04:54:36.541Z,99260.59
2022-08-08T04:56:23.115Z,99258.50
2022-08-08T04:58:50.615Z,99257.19
2022-08-08T05:01:17.383Z,99259.06
2022-08-08T05:04:09.956Z,99262.53
2022-08-08T05:06:31.065Z,99260.44
2022-08-08T05:09:02.831Z,99261.25
2022-08-08T05:11:39.481Z,99272.47
2022-08-08T05:14:08.523Z,99264.72
2022-08-08T05:16:55.001Z,99264.47
2022-08-08T05:20:09.841Z,99266.13
2022-08-08T05:22:12.004Z,99268.53
2022-08-08T05:24:38.853Z,99265.06
2022-08-08T05:27:06.771Z,99270.13
2022-08-08T05:29:35.822Z,99269.09
2022-08-08T05:32:06.618Z,99262.94
2022-08-08T05:34:36.886Z,99267.00
2022-08-08T05:37:16.263Z,99273.13
2022-08-08T05:39:55.560Z,99280.09
2022-08-08T05:42:41.294Z,99269.41
2022-08-08T05:45:10.312Z,99266.75
2022-08-08T05:48:01.370Z,99272.66
2022-08-08T05:50:36.098Z,99269.75
2022-08-08T05:53:55.362Z,99272.41
2022-08-08T05:56:11.576Z,99270.06
2022-08-08T05:58:36.514Z,99274.56
2022-08-08T06:01:03.386Z,99267.88
2022-08-08T06:03:31.651Z,99276.78
2022-08-08T06:06:05.092Z,99271.19
2022-08-08T06:08:54.636Z,99277.09
2022-08-08T06:11:21.734Z,99278.97
2022-08-08T06:13:49.253Z,99272.25
2022-08-08T06:16:16.920Z,99280.81
2022-08-08T06:18:45.777Z,99282.19
2022-08-08T06:21:32.342Z,99283.78
2022-08-08T06:24:03.455Z,99281.13
2022-08-08T06:26:44.562Z,99289.13
2022-08-08T06:29:49.532Z,99288.31
2022-08-08T06:32:15.332Z,99282.75
2022-08-08T06:34:56.620Z,99287.88
2022-08-08T06:37:37.374Z,99288.91
2022-08-08T06:40:12.820Z,99293.22
2022-08-08T06:42:52.165Z,99296.91
2022-08-08T06:45:21.404Z,99302.25
2022-08-08T06:47:52.136Z,99294.47
2022-08-08T06:50:31.414Z,99299.34
2022-08-08T06:53:01.355Z,99298.56
2022-08-08T06:55:41.738Z,99297.72
2022-08-08T06:58:08.574Z,99309.56
2022-08-08T07:00:36.162Z,99310.19
2022-08-08T07:03:09.757Z,99314.25
2022-08-08T07:06:01.836Z,99311.06
2022-08-08T07:08:34.837Z,99314.06
2022-08-08T07:11:01.317Z,99307.44
2022-08-08T07:13:39.245Z,99315.19
2022-08-08T07:16:51.262Z,99313.91
2022-08-08T07:19:44.389Z,99313.09
2022-08-08T07:22:18.801Z,99315.53
2022-08-08T07:24:52.843Z,99314.19
2022-08-08T07:27:35.526Z,99320.59
2022-08-08T07:30:14.896Z,99317.47
2022-08-08T07:32:44.679Z,99317.19
2022-08-08T07:35:15.021Z,99319.88
2022-08-08T07:37:56.532Z,99316.94
2022-08-08T07:40:29.053Z,99326.59
2022-08-08T07:42:56.724Z,99323.66
2022-08-08T07:45:23.536Z,99329.56
2022-08-08T07:50:21.955Z,99333.88
2022-08-08T07:52:57.680Z,99328.53
2022-08-08T07:55:29.272Z,99328.81
2022-08-08T07:58:16.689Z,99335.56
2022-08-08T08:00:50.384Z,99333.13
2022-08-08T08:03:23.732Z,99343.56
2022-08-08T08:05:51.772Z,99337.97
2022-08-08T08:08:20.913Z,99341.44
2022-08-08T08:10:50.992Z,99335.06
2022-08-08T08:13:42.918Z,99342.81
2022-08-08T08:16:19.399Z,99341.75
2022-08-08T08:18:55.882Z,99348.50
2022-08-08T08:21:35.515Z,99343.16
2022-08-08T08:24:10.668Z,99348.50
2022-08-08T08:26:39.029Z,99341.03
2022-08-08T08:29:16.554Z,99343.22
2022-08-08T08:31:45.989Z,99342.41
2022-08-08T08:34:23.868Z,99349.91
2022-08-08T08:36:58.824Z,99347.56
2022-08-08T08:39:25.388Z,99340.38
2022-08-08T08:42:12.009Z,99346.50
2022-08-08T08:44:39.910Z,99345.69
2022-08-08T08:47:08.956Z,99351.38
2022-08-08T08:49:36.921Z,99349.25
2022-08-08T08:52:10.026Z,99349.81
2022-08-08T08:54:38.511Z,99346.13
2022-08-08T08:57:14.491Z,99349.03
2022-08-08T08:59:59.991Z,99349.34
2022-08-08T09:02:30.519Z,99357.13
2022-08-08T09:04:59.316Z,99355.75
2022-08-08T09:07:39.241Z,99353.13
2022-08-08T09:10:17.493Z,99358.47
2022-08-08T09:12:46.166Z,99353.94
2022-08-08T09:15:12.918Z,99348.38
2022-08-08T09:17:52.346Z,99358.00
2022-08-08T09:22:00.862Z,99361.22
2022-08-08T09:23:11.209Z,99349.72
2022-08-08T09:25:54.563Z,99350.78
2022-08-08T09:28:37.244Z,99351.38
2022-08-08T09:31:14.906Z,99342.84
2022-08-08T09:34:15.442Z,99353.03
2022-08-08T09:36:36.067Z,99348.50
2022-08-08T09:39:10.067Z,99348.25
2022-08-08T09:41:54.931Z,99347.75
2022-08-08T09:45:04.006Z,99337.06
2022-08-08T09:48:09.828Z,99342.16
2022-08-08T09:50:28.308Z,99342.97
2022-08-08T09:52:58.416Z,99348.63
2022-08-08T09:55:51.423Z,99348.63
2022-08-08T09:58:26.142Z,99348.63
2022-08-08T10:01:02.714Z,99348.63
2022-08-08T10:03:41.216Z,99339.00
2022-08-08T10:06:17.607Z,99343.84
2022-08-08T10:08:47.817Z,99340.91
2022-08-08T10:12:26.351Z,99335.31
2022-08-08T10:14:28.343Z,99336.13
2022-08-08T10:16:58.643Z,99332.66
2022-08-08T10:19:45.862Z,99330.50
2022-08-08T10:22:20.862Z,99328.03
2022-08-08T10:24:47.700Z,99339.00
2022-08-08T10:27:15.130Z,99336.88
2022-08-08T10:30:01.337Z,99336.94
2022-08-08T10:32:39.062Z,99340.19
2022-08-08T10:35:20.147Z,99338.31
2022-08-08T10:38:02.525Z,99339.13
2022-08-08T10:40:32.532Z,99333.28
2022-08-08T10:43:01.876Z,99343.72
2022-08-08T10:45:28.475Z,99334.63
2022-08-08T10:47:56.997Z,99333.81
2022-08-08T10:50:35.345Z,99331.72
2022-08-08T10:53:07.503Z,99338.09
2022-08-08T10:55:40.480Z,99336.00
2022-08-08T10:58:11.980Z,99325.31
2022-08-08T11:00:48.614Z,99328.53
2022-08-08T11:03:36.952Z,99334.13
2022-08-08T11:06:16.660Z,99329.28
2022-08-08T11:08:53.133Z,99328.47
2022-08-08T11:11:32.651Z,99331.94
2022-08-08T11:14:08.090Z,99326.38
2022-08-08T11:16:42.372Z,99334.69
2022-08-08T11:19:15.755Z,99335.47
2022-08-08T11:21:56.175Z,99330.66
2022-08-08T11:24:23.682Z,99329.28
2022-08-08T11:26:56.981Z,99331.47
2022-08-08T11:29:23.825Z,99330.41
2022-08-08T11:32:08.049Z,99328.53
2022-08-08T11:34:52.454Z,99322.88
2022-08-08T11:38:39.569Z,99326.38
2022-08-08T11:40:11.638Z,99322.88
2022-08-08T11:42:38.822Z,99318.34
2022-08-08T11:45:08.305Z,99323.69
2022-08-08T11:47:39.878Z,99316.97
2022-08-08T11:50:23.159Z,99317.28
2022-08-08T11:52:50.990Z,99320.50
2022-08-08T11:55:28.680Z,99302.59
2022-08-08T11:58:14.679Z,99310.63
2022-08-08T12:00:50.980Z,99317.59
2022-08-08T12:03:21.212Z,99316.53
2022-08-08T12:05:48.128Z,99311.75
2022-08-08T12:08:14.693Z,99320.81
2022-08-08T12:10:51.584Z,99316.28
2022-08-08T12:13:37.668Z,99318.97
2022-08-08T12:16:17.651Z,99319.75
2022-08-08T12:18:52.027Z,99320.03
2022-08-08T12:21:59.896Z,99319.44
2022-08-08T12:24:21.501Z,99316.22
2022-08-08T12:26:54.904Z,99319.44
2022-08-08T12:29:40.156Z,99309.28
2022-08-08T12:32:13.404Z,99306.59
2022-08-08T12:35:04.852Z,99310.34
2022-08-08T12:38:01.039Z,99312.50
2022-08-08T12:41:00.955Z,99314.09
2022-08-08T12:43:46.475Z,99322.94
2022-08-08T12:46:25.064Z,99310.63
2022-08-08T12:49:25.018Z,99307.66
2022-08-08T12:51:50.029Z,99314.63
2022-08-08T12:54:35.751Z,99314.84
2022-08-08T12:57:20.857Z,99313.25
2022-08-08T13:00:04.729Z,99310.56
2022-08-08T13:02:37.833Z,99303.63
2022-08-08T13:05:26.508Z,99311.63
2022-08-08T13:08:15.845Z,99316.97
2022-08-08T13:10:56.871Z,99311.91
2022-08-08T13:13:35.413Z,99314.00
2022-08-08T13:16:25.818Z,99304.38
2022-08-08T13:18:58.379Z,99307.84
2022-08-08T13:21:48.982Z,99310.50
2022-08-08T13:24:20.864Z,99313.44
2022-08-08T13:27:06.049Z,99309.16
2022-08-08T13:29:47.953Z,99311.25
2022-08-08T13:32:14.767Z,99308.38
2022-08-08T13:34:41.954Z,99304.31
2022-08-08T13:37:11.096Z,99306.19
2022-08-08T13:39:55.609Z,99305.38
2022-08-08T13:42:23.206Z,99308.03
2022-08-08T13:44:55.480Z,99306.19
2022-08-08T13:47:22.914Z,99298.41
2022-08-08T13:50:36.901Z,99300.25
2022-08-08T13:52:55.623Z,99306.44
2022-08-08T13:55:29.685Z,99300.25
2022-08-08T13:58:07.721Z,99301.09
2022-08-08T14:00:45.003Z,99304.81
2022-08-08T14:03:38.364Z,99297.59
2022-08-08T14:06:08.547Z,99298.41
2022-08-08T14:08:56.733Z,99294.09
2022-08-08T14:11:29.702Z,99296.78
2022-08-08T14:14:00.623Z,99303.75
2022-08-08T14:16:28.904Z,99298.41
2022-08-08T14:18:57.879Z,99301.91
2022-08-08T14:21:48.842Z,99299.22
2022-08-08T14:24:34.025Z,99292.00
2022-08-08T14:27:01.522Z,99297.59
2022-08-08T14:29:30.517Z,99301.91
2022-08-08T14:32:09.371Z,99305.38
2022-08-08T14:34:37.607Z,99295.75
2022-08-08T14:37:06.058Z,99299.44
2022-08-08T14:39:47.882Z,99301.09
2022-08-08T14:42:16.756Z,99301.31
2022-08-08T14:44:53.553Z,99290.91
2022-08-08T14:47:21.593Z,99295.44
2022-08-08T14:50:06.858Z,99292.75
2022-08-08T14:53:05.183Z,99290.09
2022-08-08T14:55:41.551Z,99292.75
2022-08-08T14:58:11.864Z,99291.16
2022-08-08T15:00:43.594Z,99290.31
2022-08-08T15:03:14.722Z,99287.66
2022-08-08T15:05:54.141Z,99290.56
2022-08-08T15:08:35.107Z,99291.38
2022-08-08T15:11:06.792Z,99288.72
2022-08-08T15:13:39.663Z,99284.44
2022-08-08T15:16:12.228Z,99290.84
2022-08-08T15:18:49.886Z,99289.78
2022-08-08T15:21:16.773Z,99285.22
2022-08-08T15:23:43.331Z,99284.44
2022-08-08T15:26:13.003Z,99291.38
2022-08-08T15:28:39.768Z,99284.44
2022-08-08T15:31:06.298Z,99288.72
2022-08-08T15:33:35.594Z,99284.44
2022-08-08T15:36:05.604Z,99290.56
2022-08-08T15:38:32.584Z,99279.09
2022-08-08T15:40:59.372Z,99288.72
2022-08-08T15:43:35.728Z,99288.16
2022-08-08T15:46:03.424Z,99286.56
2022-08-08T15:48:29.957Z,99285.44
2022-08-08T15:51:06.311Z,99277.97
2022-08-08T15:53:49.168Z,99284.91
2022-08-08T15:56:16.773Z,99286.78
2022-08-08T15:58:48.886Z,99293.19
2022-08-08T16:01:16.219Z,99293.44
2022-08-08T16:03:42.753Z,99287.03
2022-08-08T16:06:14.325Z,99290.78
2022-08-08T16:09:02.487Z,99294.25
2022-08-08T16:13:02.803Z,99290.78
2022-08-08T16:14:16.091Z,99291.59
2022-08-08T16:16:59.486Z,99293.44
2022-08-08T16:19:26.232Z,99292.66
2022-08-08T16:21:54.022Z,99295.06
2022-08-08T16:24:22.906Z,99292.66
2022-08-08T16:26:50.784Z,99298.00
2022-08-08T16:29:19.407Z,99288.34
2022-08-08T16:32:04.081Z,99277.66
2022-08-08T16:34:37.823Z,99285.66
2022-08-08T16:37:06.180Z,99283.81
2022-08-08T16:40:02.656Z,99284.06
2022-08-08T16:42:19.583Z,99289.41
2022-08-08T16:44:47.339Z,99284.31
2022-08-08T16:47:40.703Z,99292.34
2022-08-08T16:50:15.073Z,99285.38
2022-08-08T16:55:18.389Z,99288.84
2022-08-08T16:55:53.076Z,99286.41
2022-08-08T16:58:20.897Z,99291.75
2022-08-08T17:00:48.958Z,99290.16
2022-08-08T17:03:25.209Z,99284.81
2022-08-08T17:06:05.855Z,99295.50
2022-08-08T17:08:52.381Z,99288.53
2022-08-08T17:11:19.849Z,99287.72
2022-08-08T17:14:01.100Z,99293.34
2022-08-08T17:16:28.678Z,99298.41
2022-08-08T17:18:55.343Z,99295.75
2022-08-08T17:21:21.851Z,99305.38
2022-08-08T17:24:01.301Z,99303.75
2022-08-08T17:26:30.056Z,99309.91
2022-08-08T17:28:57.398Z,99313.38
2022-08-08T17:31:44.829Z,99317.13
2022-08-08T17:34:48.796Z,99325.94
2022-08-08T17:37:03.059Z,99322.72
2022-08-08T17:40:04.297Z,99320.84
2022-08-08T17:42:17.940Z,99328.06
2022-08-08T17:44:45.190Z,99327.22
2022-08-08T17:47:23.405Z,99326.44
2022-08-08T17:49:52.551Z,99325.63
2022-08-08T17:52:19.959Z,99328.28
2022-08-08T17:54:51.899Z,99330.16
2022-08-08T17:57:22.992Z,99331.22
2022-08-08T17:59:49.474Z,99338.19
2022-08-08T18:02:21.271Z,99334.16
2022-08-08T18:04:50.265Z,99335.75
2022-08-08T18:08:02.259Z,99333.31
2022-08-08T18:10:04.056Z,99337.84
2022-08-08T18:12:30.631Z,99335.44
2022-08-08T18:14:57.552Z,99342.88
2022-08-08T18:18:04.748Z,99344.47
2022-08-08T18:20:43.456Z,99350.88
2022-08-08T18:23:00.074Z,99351.69
2022-08-08T18:25:26.551Z,99346.03
2022-08-08T18:28:03.782Z,99350.31
2022-08-08T18:30:30.311Z,99356.72
2022-08-08T18:32:58.463Z,99361.00
2022-08-08T18:35:25.195Z,99355.91
2022-08-08T18:38:03.689Z,99361.25
2022-08-08T18:40:43.278Z,99371.13
2022-08-08T18:43:16.171Z,99368.69
2022-08-08T18:46:08.531Z,99372.41
2022-08-08T18:48:29.962Z,99377.28
2022-08-08T18:50:58.187Z,99375.41
2022-08-08T18:53:25.704Z,99377.28
2022-08-08T18:56:25.208Z,99373.78
2022-08-08T18:58:53.526Z,99382.88
2022-08-08T19:02:26.771Z,99383.91
2022-08-08T19:04:10.922Z,99381.81
2022-08-08T19:06:39.365Z,99394.59
2022-08-08T19:09:13.293Z,99395.09
2022-08-08T19:11:46.302Z,99402.53
2022-08-08T19:14:13.772Z,99408.66
2022-08-08T19:16:47.397Z,99406.00
2022-08-08T19:19:14.772Z,99409.19
2022-08-08T19:21:48.633Z,99419.06
2022-08-08T19:24:38.056Z,99420.09
2022-08-08T19:27:02.998Z,99425.44
2022-08-08T19:29:30.538Z,99429.97
2022-08-08T19:31:57.392Z,99429.63
2022-08-08T19:34:35.941Z,99429.63
2022-08-08T19:37:05.492Z,99425.34
2022-08-08T19:39:35.259Z,99432.00
2022-08-08T19:42:03.629Z,99423.75
2022-08-08T19:44:43.140Z,99428.59
2022-08-08T19:47:12.604Z,99431.28
2022-08-08T19:49:39.359Z,99432.09
2022-08-08T19:52:10.506Z,99440.09
2022-08-08T19:54:38.695Z,99431.28
2022-08-08T19:57:07.791Z,99438.22
2022-08-08T19:59:35.203Z,99444.38
2022-08-08T20:02:04.536Z,99444.63
2022-08-08T20:04:33.224Z,99439.50
2022-08-08T20:07:03.603Z,99444.28
2022-08-08T20:09:32.219Z,99452.78
2022-08-08T20:11:59.033Z,99446.63
2022-08-08T20:14:34.338Z,99455.44
2022-08-08T20:17:02.667Z,99451.41
2022-08-08T20:19:33.503Z,99453.03
2022-08-08T20:22:03.225Z,99450.38
2022-08-08T20:24:31.742Z,99457.22
2022-08-08T20:26:58.239Z,99462.31
2022-08-08T20:29:25.902Z,99455.97
2022-08-08T20:32:13.281Z,99454.56
2022-08-08T20:34:47.592Z,99458.03
2022-08-08T20:37:14.482Z,99460.97
2022-08-08T20:39:51.147Z,99462.09
2022-08-08T20:42:28.610Z,99458.63
2022-08-08T20:44:55.939Z,99462.91
2022-08-08T20:47:23.524Z,99469.06
2022-08-08T20:49:50.840Z,99469.06
2022-08-08T20:52:21.724Z,99474.41
2022-08-08T20:54:49.867Z,99465.56
2022-08-08T20:57:20.869Z,99469.84
2022-08-08T20:59:47.790Z,99466.38
2022-08-08T21:02:19.757Z,99468.25
2022-08-08T21:04:52.853Z,99465.56
2022-08-08T21:07:30.953Z,99468.25
2022-08-08T21:10:12.891Z,99474.88
2022-08-08T21:12:44.669Z,99463.97
2022-08-08T21:15:16.569Z,99472.78
2022-08-08T21:17:59.512Z,99479.97
2022-08-08T21:20:34.357Z,99469.53
2022-08-08T21:23:02.274Z,99473.84
2022-08-08T21:25:29.114Z,99471.66
2022-08-08T21:28:14.600Z,99479.41
2022-08-08T21:30:42.649Z,99481.50
2022-08-08T21:33:11.930Z,99477.22
2022-08-08T21:36:18.258Z,99480.13
2022-08-08T21:38:25.050Z,99482.78
2022-08-08T21:40:56.414Z,99480.63
2022-08-08T21:43:33.514Z,99486.78
2022-08-08T21:48:08.837Z,99474.69
2022-08-08T21:48:51.492Z,99476.81
2022-08-08T21:51:46.043Z,99471.47
2022-08-08T21:54:32.731Z,99478.69
2022-08-08T21:56:53.734Z,99478.69
2022-08-08T21:59:20.963Z,99475.16
2022-08-08T22:01:52.182Z,99476.00
2022-08-08T22:04:22.382Z,99477.84
2022-08-08T22:06:51.675Z,99483.75
2022-08-08T22:09:18.289Z,99483.75
2022-08-08T22:12:02.397Z,99484.56
2022-08-08T22:14:33.212Z,99488.84
2022-08-08T22:17:01.240Z,99486.19
2022-08-08T22:19:29.432Z,99485.38
2022-08-08T22:21:56.788Z,99483.50
2022-08-08T22:24:28.275Z,99488.03
2022-08-08T22:27:01.796Z,99488.03
2022-08-08T22:30:01.489Z,99489.91
2022-08-08T22:32:18.266Z,99489.34
2022-08-08T22:34:50.494Z,99490.38
2022-08-08T22:37:49.890Z,99494.09
2022-08-08T22:40:05.706Z,99495.16
2022-08-08T22:42:34.589Z,99500.25
2022-08-08T22:45:02.961Z,99495.16
2022-08-08T22:47:37.486Z,99498.63
2022-08-08T22:50:21.588Z,99501.31
2022-08-08T22:53:22.414Z,99496.44
2022-08-08T22:55:57.923Z,99502.63
2022-08-08T22:58:27.107Z,99511.66
2022-08-08T23:00:55.122Z,99506.31
2022-08-08T23:03:21.707Z,99508.16
2022-08-08T23:05:50.012Z,99504.69
2022-08-08T23:08:17.965Z,99507.13
2022-08-08T23:10:52.726Z,99506.91
2022-08-08T23:13:22.302Z,99509.56
2022-08-08T23:16:41.605Z,99511.44
2022-08-08T23:18:40.492Z,99509.56
2022-08-08T23:21:07.737Z,99514.91
2022-08-08T23:23:48.678Z,99512.22
2022-08-08T23:26:21.449Z,99508.75
2022-08-08T23:28:48.295Z,99509.78
2022-08-08T23:31:14.957Z,99502.84
2022-08-08T23:34:17.630Z,99505.75
2022-08-08T23:36:29.013Z,99515.63
2022-08-08T23:38:55.524Z,99509.47
2022-08-08T23:41:25.343Z,99503.34
2022-08-08T23:43:56.438Z,99501.69
2022-08-08T23:49:04.181Z,99516.09
2022-08-08T23:49:15.006Z,99517.94
2022-08-08T23:52:05.323Z,99517.94
2022-08-08T23:54:41.192Z,99514.47
2022-08-08T23:57:25.367Z,99513.66
